Terminal Aerodrome Forecast
Issued by NWS Cleveland, OH

Home | Current Version | Previous Version | Graphics & Text | Print | Product List | Glossary On
Versions: 1 2 3 4 5 6 7 8 9 10 11 12 13 14 15 16 17 18 19 20
000
FTUS41 KCLE 300700 AAA
TAFCAK
TAF AMD
KCAK 300735Z 3008/3106 30012G20KT 5SM -SHSN SCT008 OVC015
      TEMPO 3008/3012 2SM -SHSN OVC006
     FM301500 33014G22KT P6SM -SHSN SCT015 OVC025
     FM301900 32010KT P6SM SCT025 BKN035
     FM310400 29005KT P6SM SCT035 BKN150=

USA.gov is the U.S. government's official web portal to all federal, state and local government web resources and services.